Time;durP1;ratioP1;P1;durP2;ratioP2;P2;SDS_P1;SDS_P2;PMS_P1;PMS_P2;Temp;Humidity;BMP_temperature;BMP_pressure;BME280_temperature;BME280_humidity;BME280_pressure;Samples;Min_cycle;Max_cycle;Signal;HPM_P1;HPM_P2
2022/03/26 00:00:25;;;;;;;87.10;57.53;;;;;;;12.11;56.63;102561.41;4788730;29;119823;-92
2022/03/26 00:02:51;;;;;;;80.47;58.40;;;;;;;11.69;56.80;102497.53;4799431;29;122699;-89
2022/03/26 00:05:17;;;;;;;77.00;54.08;;;;;;;12.14;58.46;102546.03;4803887;29;123038;-88
2022/03/26 00:07:44;;;;;;;81.05;55.95;;;;;;;12.17;57.41;102554.25;4786532;29;119751;-87
2022/03/26 00:10:32;;;;;;;83.65;56.40;;;;;;;11.76;57.48;102484.88;4793351;29;120945;-90
2022/03/26 00:13:07;;;;;;;77.88;54.35;;;;;;;11.82;57.38;102489.50;4772884;29;119938;-90
2022/03/26 00:15:41;;;;;;;76.97;53.85;;;;;;;12.13;56.81;102542.50;4812641;29;122947;-90
2022/03/26 00:18:11;;;;;;;81.25;53.60;;;;;;;12.15;56.65;102561.34;4777090;29;122999;-91
2022/03/26 00:20:44;;;;;;;81.75;55.58;;;;;;;11.81;56.78;102498.97;4815203;29;121962;-90
2022/03/26 00:23:14;;;;;;;82.93;56.08;;;;;;;11.65;56.41;102468.53;4799261;29;119463;-89
2022/03/26 00:25:40;;;;;;;77.75;55.92;;;;;;;11.65;56.73;102474.03;4796775;29;122764;-89
2022/03/26 00:28:08;;;;;;;88.15;58.25;;;;;;;11.61;56.50;102482.34;4814535;29;119824;-90
2022/03/26 00:30:34;;;;;;;83.93;57.75;;;;;;;11.78;56.89;102507.22;4802725;29;121918;-92
2022/03/26 00:33:08;;;;;;;87.97;58.25;;;;;;;11.90;56.57;102524.00;4773655;29;120253;-89
2022/03/26 00:35:34;;;;;;;83.00;57.00;;;;;;;12.06;56.53;102553.59;4815994;29;121887;-89
2022/03/26 00:38:00;;;;;;;89.10;59.05;;;;;;;11.81;56.57;102525.66;4773404;29;122817;-90
2022/03/26 00:40:26;;;;;;;84.15;58.58;;;;;;;11.85;56.96;102537.44;4802804;29;119986;-90
2022/03/26 00:42:56;;;;;;;87.28;59.38;;;;;;;11.58;56.99;102502.38;4804225;29;120661;-90
2022/03/26 00:45:24;;;;;;;89.30;59.38;;;;;;;11.56;56.72;102499.28;4789515;29;123715;-88
2022/03/26 00:47:50;;;;;;;87.47;58.22;;;;;;;11.89;56.63;102551.91;4788209;29;119781;-89
2022/03/26 00:50:15;;;;;;;84.13;57.58;;;;;;;11.85;57.18;102540.19;4819016;29;119922;-89
2022/03/26 00:52:41;;;;;;;87.88;60.72;;;;;;;11.87;56.96;102546.03;4776912;29;123392;-89
2022/03/26 00:55:07;;;;;;;89.45;58.88;;;;;;;11.59;56.91;102501.22;4811637;29;122392;-87
2022/03/26 00:57:32;;;;;;;90.38;60.28;;;;;;;11.61;57.09;102509.81;4775103;29;123732;-89
2022/03/26 00:59:58;;;;;;;90.43;62.13;;;;;;;11.68;57.20;102528.97;4832042;28;119685;-89
2022/03/26 01:02:24;;;;;;;89.88;61.85;;;;;;;11.81;57.17;102547.66;4817199;29;120122;-89
2022/03/26 01:04:50;;;;;;;90.10;60.97;;;;;;;11.79;57.19;102539.06;4816943;29;120786;-89
2022/03/26 01:07:16;;;;;;;95.25;64.35;;;;;;;11.73;57.46;102535.97;4798934;29;119969;-91
2022/03/26 01:09:44;;;;;;;89.85;60.97;;;;;;;11.74;57.68;102536.75;4828817;29;122152;-90
2022/03/26 01:12:10;;;;;;;96.45;61.90;;;;;;;11.52;57.64;102500.50;4815948;29;120509;-90
2022/03/26 01:14:36;;;;;;;99.82;62.22;;;;;;;11.73;57.95;102535.19;4820022;29;120392;-89
2022/03/26 01:17:01;;;;;;;100.10;63.95;;;;;;;11.65;58.15;102523.53;4799327;29;123967;-87
2022/03/26 01:19:27;;;;;;;93.85;62.22;;;;;;;11.69;58.08;102530.53;4823544;29;121526;-89
2022/03/26 01:21:53;;;;;;;96.18;62.45;;;;;;;11.57;58.29;102498.06;4810179;29;119682;-89
2022/03/26 01:24:18;;;;;;;98.13;65.63;;;;;;;11.65;58.40;102518.81;4803927;29;122840;-91
2022/03/26 01:26:44;;;;;;;110.03;70.35;;;;;;;11.78;58.44;102537.47;4790845;29;120970;-89
2022/03/26 01:29:09;;;;;;;109.88;69.93;;;;;;;11.59;58.67;102498.47;4801809;29;122280;-89
2022/03/26 01:31:35;;;;;;;104.25;68.57;;;;;;;11.69;58.59;102511.28;4816038;28;123223;-89
2022/03/26 01:34:01;;;;;;;94.93;63.55;;;;;;;11.75;58.94;102511.59;4810234;29;120365;-88
2022/03/26 01:36:29;;;;;;;102.00;66.65;;;;;;;11.80;59.26;102524.91;4792588;29;124132;-89
2022/03/26 01:38:55;;;;;;;99.75;66.95;;;;;;;11.71;58.80;102507.34;4809777;29;120091;-90
2022/03/26 01:41:21;;;;;;;103.85;68.53;;;;;;;11.68;58.84;102495.19;4810390;29;121743;-90
2022/03/26 01:43:46;;;;;;;100.90;66.22;;;;;;;11.73;58.47;102497.47;4810856;29;123156;-89
2022/03/26 01:46:12;;;;;;;101.03;66.97;;;;;;;11.81;58.56;102518.19;4818886;29;119727;-88
2022/03/26 01:48:39;;;;;;;104.47;67.28;;;;;;;11.68;58.42;102498.72;4829143;29;120085;-89
2022/03/26 01:51:15;;;;;;;103.47;67.72;;;;;;;11.64;58.73;102495.25;4786865;29;123156;-88
2022/03/26 01:53:52;;;;;;;103.82;66.50;;;;;;;11.76;59.16;102504.91;4827549;28;119797;-87
2022/03/26 01:56:20;;;;;;;104.95;68.15;;;;;;;11.71;58.99;102502.63;4805814;29;122291;-88
2022/03/26 01:58:46;;;;;;;96.38;64.43;;;;;;;11.75;59.47;102505.31;4828589;29;119753;-90
2022/03/26 02:01:12;;;;;;;98.30;64.57;;;;;;;11.76;59.42;102499.41;4822552;29;119942;-87
2022/03/26 02:03:38;;;;;;;100.47;65.45;;;;;;;11.69;59.43;102496.75;4812189;29;120536;-89
2022/03/26 02:06:04;;;;;;;96.20;63.88;;;;;;;11.63;59.43;102487.41;4807501;29;119836;-89
2022/03/26 02:08:30;;;;;;;99.47;65.43;;;;;;;11.71;59.43;102504.59;4785890;29;122525;-88
2022/03/26 02:10:56;;;;;;;102.85;66.05;;;;;;;11.51;59.70;102468.72;4823949;29;121414;-89
2022/03/26 02:13:21;;;;;;;98.75;65.20;;;;;;;11.68;59.51;102504.22;4814408;29;119512;-88
2022/03/26 02:15:48;;;;;;;99.50;65.80;;;;;;;11.44;59.81;102461.34;4794140;29;122485;-88
2022/03/26 02:18:14;;;;;;;96.80;62.88;;;;;;;11.48;59.74;102453.06;4796487;29;123399;-87
2022/03/26 02:20:40;;;;;;;100.32;65.03;;;;;;;11.57;59.49;102465.09;4776888;29;121827;-91
2022/03/26 02:23:06;;;;;;;103.10;65.70;;;;;;;11.67;60.07;102483.44;4798259;29;123345;-88
2022/03/26 02:25:31;;;;;;;97.78;62.35;;;;;;;11.45;60.07;102442.91;4814842;29;119518;-87
2022/03/26 02:27:57;;;;;;;99.60;63.40;;;;;;;11.63;60.22;102466.22;4813197;29;119696;-87
2022/03/26 02:30:23;;;;;;;93.82;62.42;;;;;;;11.48;60.17;102451.09;4767438;29;122841;-87
2022/03/26 02:32:48;;;;;;;97.70;61.47;;;;;;;11.67;59.82;102482.66;4798501;29;119597;-88
2022/03/26 02:35:14;;;;;;;97.53;61.17;;;;;;;11.66;59.89;102476.38;4799397;29;119679;-88
2022/03/26 02:37:40;;;;;;;100.45;63.42;;;;;;;11.45;60.17;102446.44;4808297;29;122853;-88
2022/03/26 02:40:07;;;;;;;97.88;62.30;;;;;;;11.57;60.08;102467.84;4790316;29;120097;-89
2022/03/26 02:42:35;;;;;;;96.82;62.55;;;;;;;11.65;60.19;102476.78;4782734;29;123492;-89
2022/03/26 02:45:23;;;;;;;96.57;62.67;;;;;;;11.64;60.21;102478.75;4787574;29;119696;-89
2022/03/26 02:48:12;;;;;;;97.05;61.28;;;;;;;11.36;59.80;102429.69;4817433;29;121643;-88
2022/03/26 02:50:45;;;;;;;96.10;62.60;;;;;;;11.65;59.95;102474.81;4785947;29;123659;-87
2022/03/26 02:53:12;;;;;;;94.90;62.50;;;;;;;11.58;59.69;102461.16;4788433;29;119458;-89
2022/03/26 02:55:39;;;;;;;95.88;61.92;;;;;;;11.67;59.97;102472.44;4777687;29;122113;-89
2022/03/26 02:58:07;;;;;;;99.95;62.45;;;;;;;11.35;59.81;102419.84;4800793;29;123229;-90
2022/03/26 03:00:34;;;;;;;95.03;60.08;;;;;;;11.59;59.86;102454.50;4813666;29;119564;-89
2022/03/26 03:02:59;;;;;;;93.90;61.25;;;;;;;11.53;60.04;102456.13;4805052;29;122090;-90
2022/03/26 03:05:25;;;;;;;99.82;61.95;;;;;;;11.61;60.23;102463.09;4800788;29;120562;-90
2022/03/26 03:07:51;;;;;;;97.72;62.28;;;;;;;11.60;60.62;102450.53;4785151;29;122079;-89
2022/03/26 03:10:17;;;;;;;94.53;61.83;;;;;;;11.68;60.64;102456.72;4803128;29;123108;-88
2022/03/26 03:12:44;;;;;;;93.22;59.42;;;;;;;11.63;61.18;102448.94;4809807;29;119861;-90
2022/03/26 03:15:17;;;;;;;93.95;60.15;;;;;;;11.69;61.04;102458.28;4816850;29;121911;-89
2022/03/26 03:17:44;;;;;;;;;;;;;;;11.73;61.19;102458.22;4815557;29;121403;-88
2022/03/26 03:20:11;;;;;;;88.70;57.15;;;;;;;11.67;61.14;102441.41;4782989;29;121831;-87
2022/03/26 03:22:38;;;;;;;96.53;58.08;;;;;;;11.57;60.68;102421.13;4811207;29;120129;-88
2022/03/26 03:25:05;;;;;;;89.95;55.80;;;;;;;11.80;60.58;102452.63;4834404;29;120326;-89
2022/03/26 03:27:35;;;;;;;89.20;56.60;;;;;;;11.79;60.72;102460.09;4805774;29;123141;-89
2022/03/26 03:30:00;;;;;;;87.35;56.83;;;;;;;11.74;61.21;102455.03;4797254;29;123652;-87
2022/03/26 03:32:28;;;;;;;87.93;56.55;;;;;;;11.69;60.88;102448.06;4816875;29;121975;-90
2022/03/26 03:34:54;;;;;;;95.85;56.72;;;;;;;11.80;60.85;102469.91;4818891;29;119967;-88
2022/03/26 03:37:20;;;;;;;91.97;57.72;;;;;;;11.76;61.10;102460.13;4810945;29;122887;-87
2022/03/26 03:39:46;;;;;;;88.30;56.22;;;;;;;11.74;61.44;102454.28;4798234;29;119788;-89
2022/03/26 03:42:11;;;;;;;88.75;57.08;;;;;;;11.82;60.88;102466.75;4808657;29;119996;-87
2022/03/26 03:44:37;;;;;;;94.80;55.47;;;;;;;11.56;60.77;102427.81;4800938;29;123559;-88
2022/03/26 03:47:05;;;;;;;91.75;54.55;;;;;;;11.61;61.19;102429.34;4796895;29;122626;-88
2022/03/26 03:49:34;;;;;;;84.47;54.63;;;;;;;11.61;61.00;102421.09;4800579;29;123584;-89
2022/03/26 03:52:00;;;;;;;88.40;54.90;;;;;;;11.62;60.82;102425.41;4798960;29;119707;-88
2022/03/26 03:54:26;;;;;;;84.60;53.53;;;;;;;11.50;60.89;102412.97;4782105;29;122240;-87
2022/03/26 03:56:52;;;;;;;81.80;53.55;;;;;;;11.80;60.85;102458.13;4789406;29;123179;-89
2022/03/26 03:59:17;;;;;;;86.40;52.47;;;;;;;11.54;60.78;102423.91;4801029;29;119675;-87
2022/03/26 04:01:43;;;;;;;80.07;50.65;;;;;;;11.69;60.83;102448.06;4800334;29;121953;-85
2022/03/26 04:04:09;;;;;;;80.93;49.75;;;;;;;11.80;60.67;102463.63;4811794;29;123668;-89
2022/03/26 04:06:35;;;;;;;77.45;50.05;;;;;;;11.59;60.68;102438.00;4818899;29;119559;-88
2022/03/26 04:09:01;;;;;;;77.60;47.17;;;;;;;11.77;61.21;102459.72;4792105;29;122793;-87
2022/03/26 04:11:26;;;;;;;70.57;45.35;;;;;;;11.68;61.35;102452.00;4809337;29;119577;-87
2022/03/26 04:13:53;;;;;;;71.97;45.95;;;;;;;11.78;61.47;102460.50;4825150;28;119375;-88
2022/03/26 04:16:20;;;;;;;68.82;43.10;;;;;;;11.79;61.59;102464.81;4815860;29;122784;-88
2022/03/26 04:18:45;;;;;;;67.07;43.08;;;;;;;11.77;61.93;102462.47;4785472;29;119544;-88
2022/03/26 04:21:13;;;;;;;70.15;43.30;;;;;;;11.73;62.35;102460.97;4795562;29;122642;-89
2022/03/26 04:23:39;;;;;;;68.78;42.40;;;;;;;11.87;62.51;102469.81;4842430;28;120302;-88
2022/03/26 04:26:06;;;;;;;69.07;42.97;;;;;;;11.85;62.30;102458.47;4820499;29;119557;-90
2022/03/26 04:28:31;;;;;;;64.00;41.63;;;;;;;11.97;62.19;102468.88;4809110;29;122863;-89
2022/03/26 04:30:57;;;;;;;68.05;42.08;;;;;;;11.96;62.44;102466.53;4800163;29;119709;-88
2022/03/26 04:33:23;;;;;;;64.38;40.63;;;;;;;11.96;62.80;102455.53;4816358;29;119778;-87
2022/03/26 04:35:48;;;;;;;60.72;40.33;;;;;;;11.77;62.17;102432.22;4800008;29;122752;-87
2022/03/26 04:38:14;;;;;;;59.45;38.47;;;;;;;12.04;62.38;102465.22;4786311;29;119641;-85
2022/03/26 04:40:40;;;;;;;61.20;37.78;;;;;;;12.10;62.76;102471.81;4800164;29;124919;-87
2022/03/26 04:43:05;;;;;;;59.70;36.15;;;;;;;12.14;62.91;102467.03;4787688;29;122592;-88
2022/03/26 04:45:32;;;;;;;56.25;33.83;;;;;;;12.20;63.03;102470.88;4803470;29;119796;-89
2022/03/26 04:47:59;;;;;;;56.42;33.63;;;;;;;12.22;63.46;102460.22;4784111;29;122408;-87
2022/03/26 04:50:26;;;;;;;50.60;31.92;;;;;;;12.33;63.67;102471.06;4788459;29;123846;-89
2022/03/26 04:52:52;;;;;;;47.70;32.10;;;;;;;12.24;63.55;102455.06;4800394;29;122127;-89
2022/03/26 04:55:18;;;;;;;51.75;31.70;;;;;;;12.43;63.74;102469.31;4815548;29;120291;-89
2022/03/26 04:57:47;;;;;;;48.05;30.08;;;;;;;12.45;63.68;102464.16;4812009;29;120208;-88
2022/03/26 05:00:15;;;;;;;44.53;29.30;;;;;;;12.42;63.87;102454.78;4801505;29;119424;-88
2022/03/26 05:02:41;;;;;;;46.92;28.83;;;;;;;12.43;63.67;102452.78;4784437;29;123085;-87
2022/03/26 05:05:08;;;;;;;43.17;28.23;;;;;;;12.53;63.82;102460.84;4800324;29;119549;-88
2022/03/26 05:07:45;;;;;;;44.95;29.33;;;;;;;12.56;63.91;102453.75;4793000;29;122285;-88
2022/03/26 05:10:14;;;;;;;50.80;30.17;;;;;;;12.59;63.58;102461.16;4824621;29;120552;-88
2022/03/26 05:12:42;;;;;;;43.60;26.95;;;;;;;12.65;63.57;102456.72;4825033;29;119756;-89
2022/03/26 05:15:08;;;;;;;43.78;28.77;;;;;;;12.68;63.25;102450.38;4799419;29;123080;-90
2022/03/26 05:17:38;;;;;;;41.17;26.15;;;;;;;12.64;63.46;102437.88;4814763;29;119867;-85
2022/03/26 05:20:05;;;;;;;38.28;25.45;;;;;;;12.78;63.92;102459.66;4808730;29;121200;-85
2022/03/26 05:22:31;;;;;;;41.42;25.13;;;;;;;12.78;64.01;102457.66;4792757;29;123162;-86
2022/03/26 05:24:57;;;;;;;39.45;24.60;;;;;;;12.95;63.93;102468.75;4811005;29;120255;-86
2022/03/26 05:27:23;;;;;;;42.03;23.95;;;;;;;12.99;63.91;102469.44;4813619;29;121903;-86
2022/03/26 05:29:49;;;;;;;35.20;23.77;;;;;;;12.97;64.46;102461.63;4793840;29;123078;-86
2022/03/26 05:32:16;;;;;;;32.78;23.75;;;;;;;13.07;64.56;102466.16;4790268;29;120263;-88
2022/03/26 05:34:46;;;;;;;39.70;25.63;;;;;;;13.05;64.46;102463.03;4801452;29;122948;-87
2022/03/26 05:37:12;;;;;;;38.58;24.38;;;;;;;13.15;64.63;102477.78;4818243;29;119615;-86
2022/03/26 05:39:39;;;;;;;36.72;23.60;;;;;;;13.14;64.43;102466.00;4815693;29;122086;-87
2022/03/26 05:42:05;;;;;;;39.45;25.25;;;;;;;13.18;64.78;102472.25;4804931;29;120130;-87
2022/03/26 05:44:31;;;;;;;41.10;24.15;;;;;;;13.20;64.67;102482.84;4809142;29;119640;-88
2022/03/26 05:47:00;;;;;;;42.58;26.17;;;;;;;13.12;64.93;102462.13;4802469;29;123180;-88
2022/03/26 05:49:26;;;;;;;37.85;24.58;;;;;;;13.20;64.75;102474.56;4812908;29;121037;-88
2022/03/26 05:51:52;;;;;;;38.20;25.52;;;;;;;13.21;64.61;102474.16;4818387;29;119580;-87
2022/03/26 05:54:18;;;;;;;40.63;26.52;;;;;;;13.25;64.51;102479.59;4805653;29;119652;-87
2022/03/26 05:56:51;;;;;;;37.20;24.33;;;;;;;13.31;64.97;102485.38;4787507;29;119468;-86
2022/03/26 05:59:23;;;;;;;35.55;24.95;;;;;;;13.39;64.61;102492.28;4785702;29;122228;-87
2022/03/26 06:01:50;;;;;;;39.78;25.58;;;;;;;13.38;64.70;102486.00;4786951;29;123075;-86
2022/03/26 06:04:16;;;;;;;39.03;23.88;;;;;;;13.43;64.61;102493.00;4802350;29;119558;-87
2022/03/26 06:06:43;;;;;;;36.65;22.33;;;;;;;13.44;64.67;102494.53;4806645;29;122247;-86
2022/03/26 06:09:09;;;;;;;31.65;21.17;;;;;;;13.40;64.17;102486.34;4790379;29;125062;-87
2022/03/26 06:11:35;;;;;;;30.35;19.42;;;;;;;13.47;64.81;102491.72;4821007;29;119906;-87
2022/03/26 06:14:00;;;;;;;26.85;18.75;;;;;;;13.47;64.21;102488.97;4818614;29;122118;-87
2022/03/26 06:16:26;;;;;;;25.75;17.45;;;;;;;13.46;64.54;102481.88;4801612;29;123834;-87
2022/03/26 06:18:52;;;;;;;28.60;17.27;;;;;;;13.55;64.62;102488.81;4783371;29;123125;-86
2022/03/26 06:21:18;;;;;;;28.92;17.38;;;;;;;13.60;64.58;102496.59;4798020;29;123411;-86
2022/03/26 06:23:44;;;;;;;26.63;17.63;;;;;;;13.60;64.52;102500.13;4813701;29;120155;-88
2022/03/26 06:26:10;;;;;;;33.00;18.70;;;;;;;13.52;64.31;102488.47;4786483;29;122811;-87
2022/03/26 06:28:37;;;;;;;27.83;18.42;;;;;;;13.60;64.15;102499.34;4816009;29;120196;-88
2022/03/26 06:31:03;;;;;;;30.73;18.58;;;;;;;13.58;63.90;102488.75;4800636;29;119555;-88
2022/03/26 06:33:29;;;;;;;27.77;17.60;;;;;;;13.67;64.03;102510.22;4801698;29;119992;-88
2022/03/26 06:35:54;;;;;;;28.27;17.85;;;;;;;13.63;63.77;102510.28;4800840;29;120362;-87
2022/03/26 06:38:20;;;;;;;27.05;16.88;;;;;;;13.58;63.58;102499.00;4805700;29;120078;-87
2022/03/26 06:40:46;;;;;;;27.00;16.75;;;;;;;13.55;63.93;102505.38;4806022;29;120650;-85
2022/03/26 06:43:11;;;;;;;29.40;17.77;;;;;;;13.63;63.89;102515.03;4789400;29;119580;-86
2022/03/26 06:45:37;;;;;;;24.90;17.38;;;;;;;13.65;64.27;102518.13;4806315;29;123238;-87
2022/03/26 06:48:03;;;;;;;25.50;15.73;;;;;;;13.68;63.75;102522.78;4810580;29;123387;-87
2022/03/26 06:50:29;;;;;;;26.27;16.25;;;;;;;13.66;64.06;102500.38;4821953;29;120158;-85
2022/03/26 06:52:55;;;;;;;24.52;16.48;;;;;;;13.74;63.71;102513.59;4837589;28;120168;-87
2022/03/26 06:55:22;;;;;;;23.98;15.80;;;;;;;13.70;63.72;102501.06;4802038;29;123187;-87
2022/03/26 06:57:51;;;;;;;23.58;15.32;;;;;;;13.78;63.86;102503.25;4818318;29;119883;-87
2022/03/26 07:00:17;;;;;;;24.30;15.55;;;;;;;13.81;63.84;102507.16;4802881;29;122281;-86
2022/03/26 07:02:43;;;;;;;27.02;15.63;;;;;;;13.80;63.81;102502.84;4792710;29;120267;-86
2022/03/26 07:05:10;;;;;;;20.27;14.13;;;;;;;13.72;63.74;102493.16;4812808;29;119455;-86
2022/03/26 07:07:36;;;;;;;20.65;12.90;;;;;;;13.78;63.70;102497.75;4766947;29;122917;-85
2022/03/26 07:10:03;;;;;;;24.60;15.00;;;;;;;13.83;63.63;102508.28;4820369;29;119483;-86
2022/03/26 07:12:29;;;;;;;20.42;13.18;;;;;;;13.81;63.88;102501.63;4809812;29;121823;-85
2022/03/26 07:14:56;;;;;;;23.92;13.13;;;;;;;13.80;63.49;102516.63;4813329;29;122781;-87
2022/03/26 07:17:21;;;;;;;19.55;13.10;;;;;;;13.72;63.76;102501.44;4801576;29;119980;-86
2022/03/26 07:19:47;;;;;;;22.80;12.55;;;;;;;13.74;63.70;102507.31;4801160;29;123076;-86
2022/03/26 07:22:13;;;;;;;21.67;12.05;;;;;;;13.67;63.63;102497.19;4806533;29;123286;-87
2022/03/26 07:24:39;;;;;;;17.20;11.32;;;;;;;13.71;63.84;102491.59;4803010;29;122849;-87
2022/03/26 07:27:05;;;;;;;17.60;11.20;;;;;;;13.68;63.84;102492.44;4816022;29;120422;-86
2022/03/26 07:29:32;;;;;;;16.50;11.10;;;;;;;13.76;63.91;102510.41;4815731;29;119916;-87
2022/03/26 07:31:58;;;;;;;20.50;10.70;;;;;;;13.68;64.03;102497.97;4786046;29;122344;-88
2022/03/26 07:34:26;;;;;;;15.27;9.57;;;;;;;13.82;63.40;102517.75;4797205;29;123116;-87
2022/03/26 07:36:52;;;;;;;14.55;8.73;;;;;;;13.68;63.67;102492.44;4800208;29;120057;-87
2022/03/26 07:39:17;;;;;;;14.75;9.27;;;;;;;13.59;63.33;102489.50;4816154;29;119917;-88
2022/03/26 07:41:43;;;;;;;15.48;8.75;;;;;;;13.80;63.45;102520.16;4821917;29;120072;-89
2022/03/26 07:44:09;;;;;;;14.23;8.88;;;;;;;13.88;63.36;102531.03;4824519;29;119403;-87
2022/03/26 07:46:34;;;;;;;13.82;8.98;;;;;;;13.91;63.21;102536.47;4805455;29;123617;-87
2022/03/26 07:49:00;;;;;;;16.42;8.85;;;;;;;13.99;62.99;102543.41;4796418;29;119545;-88
2022/03/26 07:51:28;;;;;;;11.43;7.00;;;;;;;14.06;62.75;102553.47;4819675;29;120194;-86
2022/03/26 07:53:54;;;;;;;11.05;6.18;;;;;;;14.04;62.73;102551.16;4803102;29;122982;-87
2022/03/26 07:56:19;;;;;;;11.65;6.00;;;;;;;14.01;62.29;102542.97;4819261;29;120122;-86
2022/03/26 07:58:47;;;;;;;12.65;6.72;;;;;;;13.97;62.79;102534.78;4818705;29;121826;-87
2022/03/26 08:01:12;;;;;;;10.68;5.70;;;;;;;13.96;62.41;102530.47;4788128;29;122862;-88
2022/03/26 08:03:38;;;;;;;10.77;5.35;;;;;;;14.03;62.43;102549.59;4807413;29;119648;-89
2022/03/26 08:06:04;;;;;;;11.65;5.40;;;;;;;14.00;61.99;102558.75;4803252;29;123163;-88
2022/03/26 08:08:29;;;;;;;9.43;5.13;;;;;;;14.02;62.31;102553.56;4800614;29;120089;-86
2022/03/26 08:10:55;;;;;;;9.57;5.15;;;;;;;14.07;62.24;102572.38;4821824;29;122165;-87
2022/03/26 08:13:20;;;;;;;10.27;5.00;;;;;;;14.04;62.42;102564.19;4822207;29;123872;-88
2022/03/26 08:15:46;;;;;;;9.73;4.88;;;;;;;13.98;62.11;102561.16;4805522;29;119513;-87
2022/03/26 08:18:12;;;;;;;7.40;4.50;;;;;;;14.04;62.49;102564.19;4785315;29;121965;-87
2022/03/26 08:20:38;;;;;;;8.82;3.60;;;;;;;13.92;62.41;102542.75;4804603;29;120793;-87
2022/03/26 08:23:04;;;;;;;5.72;2.90;;;;;;;14.07;61.72;102571.59;4820021;29;119956;-88
2022/03/26 08:28:14;;;;;;;5.25;3.33;;;;;;;14.03;61.60;102571.69;4802704;29;119644;-87
2022/03/26 08:30:41;;;;;;;6.00;3.08;;;;;;;14.06;61.37;102581.84;4820040;29;120286;-88
2022/03/26 08:33:07;;;;;;;6.57;3.50;;;;;;;14.01;61.83;102579.63;4801942;29;122775;-88
2022/03/26 08:35:39;;;;;;;6.85;3.00;;;;;;;14.06;61.60;102583.84;4795933;29;119598;-89
2022/03/26 08:38:05;;;;;;;5.72;2.88;;;;;;;13.82;61.34;102548.09;4801704;29;124979;-86
2022/03/26 08:40:31;;;;;;;4.30;2.92;;;;;;;14.07;61.51;102591.69;4807349;29;123646;-87
2022/03/26 08:42:59;;;;;;;8.63;3.30;;;;;;;14.05;61.40;102583.06;4823261;29;119514;-88
2022/03/26 08:45:28;;;;;;;7.45;3.63;;;;;;;14.09;61.36;102582.97;4804418;29;122274;-87
2022/03/26 08:47:54;;;;;;;7.00;3.20;;;;;;;14.07;61.66;102580.66;4822478;29;123939;-87
2022/03/26 08:50:20;;;;;;;6.40;3.00;;;;;;;14.16;61.20;102587.56;4787850;29;122295;-88
2022/03/26 08:52:49;;;;;;;5.50;2.75;;;;;;;14.14;61.27;102579.72;4818217;29;121931;-89
2022/03/26 08:55:16;;;;;;;4.82;3.33;;;;;;;14.28;60.74;102597.94;4784254;29;120284;-86
2022/03/26 08:57:42;;;;;;;5.80;3.72;;;;;;;14.19;60.88;102594.97;4784926;29;121971;-86
2022/03/26 09:00:13;;;;;;;5.53;3.60;;;;;;;14.27;60.96;102605.44;4785151;29;120100;-88
2022/03/26 09:02:39;;;;;;;5.90;2.92;;;;;;;14.09;60.36;102583.75;4816952;29;121742;-88
2022/03/26 09:05:06;;;;;;;7.78;3.10;;;;;;;14.26;61.00;102605.88;4818916;29;119630;-90
2022/03/26 09:07:33;;;;;;;4.97;3.15;;;;;;;14.25;60.53;102616.13;4818314;29;123318;-88
2022/03/26 09:10:00;;;;;;;5.25;2.97;;;;;;;13.90;60.80;102579.06;4812736;29;119586;-86
2022/03/26 09:12:26;;;;;;;5.88;3.10;;;;;;;13.91;60.56;102582.59;4827766;29;123138;-87
2022/03/26 09:14:51;;;;;;;3.97;2.95;;;;;;;13.86;60.76;102580.34;4793393;29;120590;-87
2022/03/26 09:17:17;;;;;;;4.38;2.67;;;;;;;14.08;60.46;102597.97;4827736;29;119600;-86
2022/03/26 09:19:43;;;;;;;6.53;3.10;;;;;;;14.20;60.52;102611.13;4827073;29;120212;-86
2022/03/26 09:22:09;;;;;;;6.80;2.92;;;;;;;14.30;60.57;102612.09;4810450;29;119926;-87
2022/03/26 09:24:34;;;;;;;7.10;3.22;;;;;;;14.31;60.90;102605.34;4809155;29;122626;-86
2022/03/26 09:27:00;;;;;;;6.80;3.38;;;;;;;14.49;60.53;102627.84;4833409;29;120422;-88
2022/03/26 09:29:26;;;;;;;6.70;3.00;;;;;;;14.41;60.23;102593.28;4816822;29;122213;-89
2022/03/26 09:31:52;;;;;;;4.10;2.88;;;;;;;14.58;59.94;102618.94;4804294;29;122648;-91
2022/03/26 09:34:18;;;;;;;3.08;2.53;;;;;;;14.67;59.84;102617.16;4803784;29;119635;-87
2022/03/26 09:36:43;;;;;;;7.78;3.47;;;;;;;14.69;59.31;102628.56;4800319;29;122933;-86
2022/03/26 09:39:09;;;;;;;3.72;2.70;;;;;;;14.72;59.67;102618.63;4816577;29;123372;-87
2022/03/26 09:41:35;;;;;;;3.25;2.30;;;;;;;14.80;59.37;102630.25;4794236;29;119587;-87
2022/03/26 09:44:02;;;;;;;4.03;2.38;;;;;;;14.72;59.20;102596.50;4819236;29;122182;-87
2022/03/26 09:46:28;;;;;;;4.82;2.53;;;;;;;14.78;59.21;102588.47;4815789;29;123094;-88
2022/03/26 09:48:54;;;;;;;3.80;2.45;;;;;;;14.98;58.98;102608.50;4833748;29;119843;-87
2022/03/26 09:51:22;;;;;;;3.88;2.20;;;;;;;15.11;58.74;102625.91;4801160;29;122664;-87
2022/03/26 09:53:53;;;;;;;4.25;2.40;;;;;;;15.17;58.84;102618.66;4834067;28;120063;-86
2022/03/26 09:56:20;;;;;;;3.03;1.92;;;;;;;15.20;58.59;102614.25;4831550;29;120065;-88
2022/03/26 09:58:45;;;;;;;4.40;2.03;;;;;;;15.30;58.05;102607.63;4816985;29;123261;-87
2022/03/26 10:01:11;;;;;;;3.40;2.15;;;;;;;15.35;57.44;102602.34;4819516;29;119598;-87
2022/03/26 10:03:40;;;;;;;2.28;2.00;;;;;;;15.25;58.31;102581.28;4800992;29;123141;-87
2022/03/26 10:06:07;;;;;;;3.25;2.10;;;;;;;15.36;57.38;102595.59;4814973;29;123184;-85
2022/03/26 10:08:39;;;;;;;3.05;2.00;;;;;;;15.54;57.46;102605.38;4832242;29;120045;-86
2022/03/26 10:11:06;;;;;;;2.92;2.13;;;;;;;15.63;57.07;102602.81;4828968;28;119955;-86
2022/03/26 10:13:38;;;;;;;3.67;2.00;;;;;;;15.56;57.33;102578.84;4804942;29;120468;-86
2022/03/26 10:16:11;;;;;;;2.22;1.88;;;;;;;15.70;57.21;102610.91;4811906;29;122243;-86
2022/03/26 10:18:47;;;;;;;4.05;2.00;;;;;;;15.77;56.14;102605.16;4828716;29;123207;-86
2022/03/26 10:21:16;;;;;;;4.28;2.60;;;;;;;15.62;56.91;102584.66;4832814;29;119910;-86
2022/03/26 10:23:48;;;;;;;7.43;2.38;;;;;;;15.78;56.56;102601.16;4790789;29;122844;-88
2022/03/26 10:26:21;;;;;;;4.43;2.03;;;;;;;15.85;56.81;102617.56;4810661;29;123368;-86
2022/03/26 10:28:53;;;;;;;4.80;2.50;;;;;;;15.86;56.35;102604.50;4825947;29;119961;-87
2022/03/26 10:34:21;;;;;;;4.78;2.50;;;;;;;15.91;56.01;102606.72;4835051;28;120514;-89
2022/03/26 10:36:53;;;;;;;3.13;2.10;;;;;;;15.89;56.22;102603.63;4797714;29;121413;-90
2022/03/26 10:39:30;;;;;;;4.85;2.30;;;;;;;15.89;56.54;102598.88;4810299;29;123096;-91
2022/03/26 10:41:57;;;;;;;3.65;2.10;;;;;;;15.84;56.23;102585.56;4796536;29;120107;-90
2022/03/26 10:44:31;;;;;;;3.85;2.10;;;;;;;15.75;55.48;102574.38;4801743;29;122996;-90
2022/03/26 10:46:59;;;;;;;4.45;2.15;;;;;;;15.60;55.47;102556.63;4799999;29;123030;-88
2022/03/26 10:49:40;;;;;;;4.88;2.63;;;;;;;15.73;55.79;102587.09;4800461;29;122187;-88
2022/03/26 10:52:17;;;;;;;5.70;2.17;;;;;;;15.65;55.65;102564.41;4794972;29;122968;-91
2022/03/26 10:54:43;;;;;;;4.55;2.45;;;;;;;15.72;56.40;102564.19;4796713;29;123397;-87
2022/03/26 10:57:10;;;;;;;5.38;3.10;;;;;;;15.77;58.61;102573.94;4801787;29;120065;-89
2022/03/26 10:59:36;;;;;;;5.30;2.80;;;;;;;15.64;56.73;102544.28;4820898;29;122877;-88
2022/03/26 11:02:01;;;;;;;6.95;3.33;;;;;;;15.52;55.58;102538.69;4800785;29;120064;-91
2022/03/26 11:04:28;;;;;;;6.38;3.70;;;;;;;15.54;55.96;102550.06;4801563;29;122450;-91
2022/03/26 11:07:02;;;;;;;4.68;2.90;;;;;;;15.28;55.67;102521.59;4792064;29;122959;-89
2022/03/26 11:09:28;;;;;;;10.90;4.28;;;;;;;15.50;55.58;102554.94;4789481;29;120085;-92
2022/03/26 11:11:56;;;;;;;3.38;2.42;;;;;;;15.67;56.10;102569.50;4783314;29;122301;-89